Time;durP1;ratioP1;P1;durP2;ratioP2;P2;SDS_P1;SDS_P2;PMS_P1;PMS_P2;Temp;Humidity;BMP_temperature;BMP_pressure;BME280_temperature;BME280_humidity;BME280_pressure;Samples;Min_cycle;Max_cycle;Signal;HPM_P1;HPM_P2
2022/08/22 00:00:26;;;;;;;6.60;2.40;;;;;;;16.39;96.19;101531.16;5019110;28;20502;-47
2022/08/22 00:03:15;;;;;;;6.97;2.55;;;;;;;16.20;97.12;101529.41;5019370;28;20220;-46
2022/08/22 00:06:09;;;;;;;6.80;2.65;;;;;;;16.23;97.01;101525.66;5018745;28;20193;-45
2022/08/22 00:08:44;;;;;;;5.05;2.25;;;;;;;16.28;96.90;101527.16;5003401;28;20299;-46
2022/08/22 00:11:27;;;;;;;8.32;2.50;;;;;;;15.97;96.80;101527.84;5022499;28;20223;-48
2022/08/22 00:13:55;;;;;;;7.93;2.38;;;;;;;15.92;97.49;101531.72;5019164;28;20211;-46
2022/08/22 00:16:28;;;;;;;7.15;2.00;;;;;;;16.00;97.76;101534.91;5019060;28;20184;-45
2022/08/22 00:19:30;;;;;;;5.45;2.33;;;;;;;15.91;97.73;101535.38;5017824;28;20275;-47
2022/08/22 00:22:16;;;;;;;7.50;2.60;;;;;;;16.07;97.53;101536.38;4984385;28;20203;-48
2022/08/22 00:24:45;;;;;;;6.90;2.75;;;;;;;15.91;97.55;101532.69;5018035;28;20216;-47
2022/08/22 00:27:25;;;;;;;7.55;2.33;;;;;;;15.92;97.65;101538.03;5020051;28;20702;-47
2022/08/22 00:30:18;;;;;;;6.07;2.40;;;;;;;15.86;97.65;101533.78;5021294;28;20674;-48
2022/08/22 00:32:54;;;;;;;7.40;2.53;;;;;;;15.88;97.54;101539.13;5022094;28;20204;-45
2022/08/22 00:35:30;;;;;;;6.00;2.50;;;;;;;15.82;97.17;101540.28;5023868;28;20208;-45
2022/08/22 00:38:27;;;;;;;8.57;2.85;;;;;;;15.58;97.38;101538.75;5018495;28;20599;-46
2022/08/22 00:41:02;;;;;;;7.90;2.35;;;;;;;15.33;98.22;101533.63;5012115;28;20342;-48
2022/08/22 00:43:46;;;;;;;4.00;2.33;;;;;;;15.37;98.93;101528.03;5009575;28;20212;-45
2022/08/22 00:46:21;;;;;;;6.10;2.60;;;;;;;15.51;98.96;101524.66;5019278;28;20188;-45
2022/08/22 00:49:13;;;;;;;6.68;2.60;;;;;;;15.52;98.49;101522.81;5015683;28;20216;-46
2022/08/22 00:51:54;;;;;;;5.13;2.28;;;;;;;15.47;98.69;101527.56;5031996;28;20196;-46
2022/08/22 00:54:33;;;;;;;5.07;2.30;;;;;;;15.50;98.54;101530.13;5014202;28;20842;-47
2022/08/22 00:57:20;;;;;;;5.97;2.47;;;;;;;15.53;98.09;101535.41;5022653;28;20184;-46
2022/08/22 01:00:12;;;;;;;7.18;2.33;;;;;;;15.49;98.08;101531.94;5012267;28;20314;-47
2022/08/22 01:02:55;;;;;;;4.15;2.17;;;;;;;15.32;98.47;101537.28;5018246;28;20185;-45
2022/08/22 01:05:54;;;;;;;7.97;2.58;;;;;;;15.35;99.27;101547.91;5016082;28;20345;-45
2022/08/22 01:08:23;;;;;;;5.03;1.90;;;;;;;15.45;99.10;101539.31;5019694;28;20185;-47
2022/08/22 01:11:10;;;;;;;7.60;2.65;;;;;;;15.43;98.75;101543.91;5014594;28;20517;-44
2022/08/22 01:13:54;;;;;;;7.18;2.85;;;;;;;15.22;99.09;101551.22;5017881;28;20246;-47
2022/08/22 01:17:01;;;;;;;5.35;2.20;;;;;;;15.25;100.00;101545.66;5017369;28;20192;-46
2022/08/22 01:19:51;;;;;;;5.82;2.50;;;;;;;15.27;100.00;101542.88;4994317;28;20577;-44
2022/08/22 01:22:50;;;;;;;4.70;2.40;;;;;;;15.36;100.00;101547.84;5019980;28;20284;-48
2022/08/22 01:25:54;;;;;;;3.45;2.22;;;;;;;15.40;100.00;101541.38;5021645;28;20223;-48
2022/08/22 01:28:57;;;;;;;4.90;2.03;;;;;;;15.48;100.00;101549.13;5013561;28;20206;-48
2022/08/22 01:31:44;;;;;;;6.50;2.50;;;;;;;15.50;100.00;101546.31;5016146;28;20225;-45
2022/08/22 01:34:35;;;;;;;6.03;2.83;;;;;;;15.52;100.00;101557.94;5018805;28;20581;-47
2022/08/22 01:37:25;;;;;;;3.85;2.10;;;;;;;15.64;100.00;101549.25;5023098;28;20184;-48
2022/08/22 01:40:12;;;;;;;8.77;2.72;;;;;;;15.56;100.00;101541.50;5019469;28;20220;-52
2022/08/22 01:42:47;;;;;;;4.18;2.40;;;;;;;15.58;100.00;101533.34;5016061;28;20177;-51
2022/08/22 01:45:35;;;;;;;4.15;2.28;;;;;;;15.63;100.00;101539.38;5024873;28;20694;-50
2022/08/22 01:48:11;;;;;;;4.43;2.20;;;;;;;15.56;100.00;101543.34;5026649;28;20222;-50
2022/08/22 01:50:49;;;;;;;4.30;2.50;;;;;;;15.47;100.00;101544.66;5028307;28;20204;-49
2022/08/22 01:53:35;;;;;;;5.95;2.20;;;;;;;15.55;100.00;101549.72;5011592;28;20195;-50
2022/08/22 01:56:18;;;;;;;4.55;2.45;;;;;;;15.51;100.00;101546.25;5001858;28;20663;-51
2022/08/22 01:58:53;;;;;;;5.80;2.30;;;;;;;15.51;100.00;101543.56;5020302;28;20218;-50
2022/08/22 02:01:39;;;;;;;7.20;2.72;;;;;;;15.51;100.00;101540.88;5007061;28;20384;-50
2022/08/22 02:04:18;;;;;;;7.18;2.05;;;;;;;15.50;100.00;101541.78;5022641;28;20212;-51
2022/08/22 02:06:58;;;;;;;5.88;2.40;;;;;;;15.41;100.00;101539.53;5021570;28;20215;-49
2022/08/22 02:09:47;;;;;;;5.63;2.30;;;;;;;15.45;100.00;101538.44;5015192;28;20207;-49
2022/08/22 02:12:12;;;;;;;5.75;2.45;;;;;;;15.43;100.00;101543.91;5013032;28;20235;-49
2022/08/22 02:14:48;;;;;;;7.97;2.70;;;;;;;15.32;100.00;101548.06;5011300;28;20696;-50
2022/08/22 02:17:28;;;;;;;7.13;2.35;;;;;;;15.35;100.00;101540.72;5008205;28;20262;-50
2022/08/22 02:20:00;;;;;;;4.32;2.42;;;;;;;15.39;100.00;101536.03;5015795;28;20188;-51
2022/08/22 02:22:35;;;;;;;5.22;2.20;;;;;;;15.41;100.00;101537.72;5018336;28;20246;-50
2022/08/22 02:25:12;;;;;;;5.45;2.35;;;;;;;15.28;100.00;101532.97;5020737;28;20675;-50
2022/08/22 02:27:57;;;;;;;4.70;2.10;;;;;;;15.27;100.00;101532.09;5021978;28;20184;-50
2022/08/22 02:30:46;;;;;;;5.97;2.30;;;;;;;15.13;100.00;101537.25;5024130;28;20204;-50
2022/08/22 02:33:23;;;;;;;4.38;2.28;;;;;;;15.14;100.00;101541.72;5019577;28;20200;-50
2022/08/22 02:35:57;;;;;;;7.65;2.70;;;;;;;14.94;100.00;101545.31;5017353;28;20195;-50
2022/08/22 02:38:46;;;;;;;3.45;1.95;;;;;;;15.13;100.00;101542.63;5015512;28;20273;-48
2022/08/22 02:41:24;;;;;;;7.03;2.28;;;;;;;15.20;100.00;101550.41;5013778;28;20227;-52
2022/08/22 02:43:58;;;;;;;4.70;2.08;;;;;;;15.10;100.00;101549.06;5015298;28;20770;-50
2022/08/22 02:46:42;;;;;;;5.35;2.47;;;;;;;15.12;100.00;101549.88;5017392;28;20271;-49
2022/08/22 02:49:49;;;;;;;3.17;1.70;;;;;;;15.18;100.00;101549.59;5026131;28;20204;-51
2022/08/22 02:52:32;;;;;;;5.07;2.05;;;;;;;15.23;100.00;101552.94;5013689;28;20203;-51
2022/08/22 02:55:14;;;;;;;4.90;2.40;;;;;;;15.13;100.00;101548.03;5021301;28;20637;-51
2022/08/22 02:58:04;;;;;;;3.72;2.13;;;;;;;15.18;100.00;101546.03;5019222;28;20177;-49
2022/08/22 03:00:43;;;;;;;4.47;2.42;;;;;;;15.16;100.00;101556.00;5030275;28;20655;-50
2022/08/22 03:03:24;;;;;;;4.63;2.00;;;;;;;15.08;100.00;101550.94;5030284;28;20200;-52
2022/08/22 03:06:04;;;;;;;3.40;2.00;;;;;;;15.09;100.00;101555.41;5023320;28;20720;-50
2022/08/22 03:08:37;;;;;;;6.18;1.95;;;;;;;15.09;100.00;101547.31;5014734;28;20635;-50
2022/08/22 03:11:09;;;;;;;5.50;2.67;;;;;;;14.94;100.00;101558.81;5016780;28;20664;-49
2022/08/22 03:13:39;;;;;;;4.15;2.20;;;;;;;14.78;100.00;101562.19;5018912;28;20710;-51
2022/08/22 03:16:42;;;;;;;4.65;2.53;;;;;;;14.76;100.00;101558.69;5020716;28;20184;-50
2022/08/22 03:19:16;;;;;;;3.72;2.35;;;;;;;14.86;100.00;101551.03;5035002;28;20195;-50
2022/08/22 03:21:56;;;;;;;6.50;2.70;;;;;;;14.67;100.00;101553.69;5025030;28;20187;-50
2022/08/22 03:24:54;;;;;;;5.55;2.67;;;;;;;14.65;100.00;101552.88;4990411;28;20239;-50
2022/08/22 03:27:38;;;;;;;3.88;2.10;;;;;;;14.71;100.00;101557.97;5019771;28;20206;-50
2022/08/22 03:30:16;;;;;;;2.80;1.98;;;;;;;14.72;100.00;101557.06;5022134;28;20239;-50
2022/08/22 03:33:11;;;;;;;4.20;2.38;;;;;;;14.75;100.00;101570.41;5013453;28;20203;-53
2022/08/22 03:35:45;;;;;;;5.70;2.22;;;;;;;14.69;100.00;101576.06;5004015;28;20208;-52
2022/08/22 03:38:29;;;;;;;3.28;2.08;;;;;;;14.61;100.00;101570.13;5018496;28;20238;-50
2022/08/22 03:41:22;;;;;;;5.00;2.15;;;;;;;14.58;100.00;101575.66;5022864;28;20180;-49
2022/08/22 03:44:20;;;;;;;3.92;2.03;;;;;;;14.68;100.00;101578.84;5034082;28;20216;-50
2022/08/22 03:47:16;;;;;;;3.45;1.80;;;;;;;14.66;100.00;101581.59;5018714;28;20215;-53
2022/08/22 03:50:07;;;;;;;3.45;1.67;;;;;;;14.74;100.00;101583.97;5015876;28;20570;-48
2022/08/22 03:53:09;;;;;;;2.42;1.65;;;;;;;14.66;100.00;101584.28;5014128;28;20231;-49
2022/08/22 03:56:05;;;;;;;5.00;2.10;;;;;;;14.49;100.00;101593.06;5019637;28;20184;-50
2022/08/22 03:58:30;;;;;;;6.00;2.22;;;;;;;14.46;100.00;101589.63;5028897;28;20187;-51
2022/08/22 04:01:02;;;;;;;5.55;2.00;;;;;;;14.45;100.00;101590.56;5021803;28;20267;-50
2022/08/22 04:04:06;;;;;;;3.53;1.58;;;;;;;14.54;100.00;101582.06;5026963;28;20756;-50
2022/08/22 04:07:00;;;;;;;3.50;2.30;;;;;;;14.50;100.00;101583.19;5020656;28;20226;-50
2022/08/22 04:09:54;;;;;;;5.22;2.10;;;;;;;14.39;100.00;101580.94;5010660;28;20625;-52
2022/08/22 04:12:41;;;;;;;4.65;2.22;;;;;;;14.37;100.00;101586.38;5017277;28;20571;-50
2022/08/22 04:15:18;;;;;;;3.55;1.73;;;;;;;14.32;100.00;101588.41;5019915;28;20212;-51
2022/08/22 04:17:55;;;;;;;3.13;1.98;;;;;;;14.41;100.00;101595.22;5012905;28;20216;-49
2022/08/22 04:21:00;;;;;;;4.80;2.28;;;;;;;14.22;100.00;101595.09;5014803;28;20203;-52
2022/08/22 04:23:59;;;;;;;5.75;2.47;;;;;;;14.17;100.00;101592.59;5013916;28;20203;-50
2022/08/22 04:26:35;;;;;;;2.53;1.70;;;;;;;14.29;100.00;101591.22;5016075;28;20196;-49
2022/08/22 04:29:25;;;;;;;3.95;2.20;;;;;;;14.28;100.00;101586.78;5022630;28;20231;-48
2022/08/22 04:31:58;;;;;;;5.10;2.10;;;;;;;14.13;100.00;101595.50;5020971;28;20291;-51
2022/08/22 04:34:38;;;;;;;6.63;2.17;;;;;;;14.04;100.00;101594.03;5020099;28;20295;-51
2022/08/22 04:37:23;;;;;;;7.25;2.13;;;;;;;13.96;100.00;101599.72;5016477;28;20319;-52
2022/08/22 04:40:07;;;;;;;4.45;2.10;;;;;;;13.98;100.00;101600.53;5026364;28;20213;-49
2022/08/22 04:42:46;;;;;;;5.45;1.90;;;;;;;14.10;100.00;101598.28;5028889;28;20199;-53
2022/08/22 04:45:16;;;;;;;4.40;2.00;;;;;;;14.08;100.00;101606.47;5017917;28;20263;-49
2022/08/22 04:47:48;;;;;;;6.68;2.00;;;;;;;14.07;100.00;101606.50;5012824;28;20741;-50
2022/08/22 04:50:43;;;;;;;3.40;2.05;;;;;;;14.24;100.00;101613.91;5014647;28;20205;-49
2022/08/22 04:53:27;;;;;;;2.97;2.20;;;;;;;14.45;100.00;101618.41;5018606;28;20257;-49
2022/08/22 04:55:52;;;;;;;2.72;1.92;;;;;;;14.87;100.00;101624.75;5023510;28;20192;-47
2022/08/22 04:58:31;;;;;;;4.47;2.15;;;;;;;15.27;100.00;101625.72;5021607;28;20176;-48
2022/08/22 05:01:06;;;;;;;2.72;1.98;;;;;;;15.62;100.00;101622.25;5029464;28;20199;-49
2022/08/22 05:03:38;;;;;;;5.63;2.15;;;;;;;15.72;99.48;101613.75;5011115;28;20201;-49
2022/08/22 05:06:06;;;;;;;5.70;2.40;;;;;;;15.77;97.79;101618.00;5020434;28;20184;-50
2022/08/22 05:08:38;;;;;;;4.85;1.98;;;;;;;15.76;96.76;101616.22;5020592;28;20181;-54
2022/08/22 05:11:06;;;;;;;3.50;2.30;;;;;;;15.78;96.38;101621.56;5024112;28;20234;-47
2022/08/22 05:14:01;;;;;;;5.43;2.35;;;;;;;15.66;96.02;101623.00;5029096;28;20211;-48
2022/08/22 05:16:32;;;;;;;4.07;2.28;;;;;;;15.54;95.93;101621.72;4999454;28;20214;-48
2022/08/22 05:19:18;;;;;;;6.82;2.30;;;;;;;15.54;96.41;101623.56;5018445;28;20187;-48
2022/08/22 05:21:47;;;;;;;3.95;1.83;;;;;;;15.69;97.07;101627.38;5013885;28;20399;-49
2022/08/22 05:24:37;;;;;;;5.68;1.83;;;;;;;15.79;97.11;101629.59;5027178;28;20234;-52
2022/08/22 05:27:12;;;;;;;3.28;1.88;;;;;;;15.63;97.03;101626.72;5019228;28;20184;-50
2022/08/22 05:29:41;;;;;;;4.68;2.40;;;;;;;15.71;97.42;101636.28;5021872;28;20194;-49
2022/08/22 05:32:18;;;;;;;5.07;1.80;;;;;;;15.79;97.34;101629.59;5024869;28;20176;-51
2022/08/22 05:34:46;;;;;;;2.72;1.80;;;;;;;15.89;97.36;101621.06;5012639;28;20204;-50
2022/08/22 05:37:17;;;;;;;2.20;1.80;;;;;;;16.06;97.02;101634.63;5023202;28;20564;-49
2022/08/22 05:39:47;;;;;;;2.63;1.67;;;;;;;16.27;96.60;101627.31;5011639;28;20185;-51
2022/08/22 05:42:22;;;;;;;2.97;1.48;;;;;;;16.47;95.90;101627.19;5027849;28;20293;-51
2022/08/22 05:44:48;;;;;;;4.38;1.60;;;;;;;16.61;95.57;101625.63;5021909;28;20216;-51
2022/08/22 05:47:35;;;;;;;5.78;2.15;;;;;;;16.84;95.51;101622.66;5019226;28;20180;-47
2022/08/22 05:50:06;;;;;;;5.78;2.05;;;;;;;17.15;94.98;101631.00;5023690;28;20191;-47
2022/08/22 05:52:53;;;;;;;2.80;1.80;;;;;;;17.28;94.19;101627.53;5027183;28;20184;-50
2022/08/22 05:55:51;;;;;;;3.95;2.00;;;;;;;17.39;93.50;101624.25;5028248;28;20594;-48
2022/08/22 05:58:31;;;;;;;3.53;1.70;;;;;;;17.55;93.26;101637.84;5006094;28;20295;-45
2022/08/22 06:01:15;;;;;;;4.22;1.92;;;;;;;17.54;92.78;101630.69;5029034;28;20262;-45
2022/08/22 06:04:10;;;;;;;7.07;2.10;;;;;;;17.48;92.68;101641.84;5032680;28;20196;-47
2022/08/22 06:06:53;;;;;;;3.13;1.90;;;;;;;17.60;93.16;101643.00;5030541;28;20180;-51
2022/08/22 06:09:46;;;;;;;6.30;1.77;;;;;;;17.38;92.77;101651.41;5033835;28;20218;-45
2022/08/22 06:12:21;;;;;;;5.13;2.17;;;;;;;17.90;92.98;101649.47;5020685;28;20945;-46
2022/08/22 06:14:59;;;;;;;5.32;2.13;;;;;;;18.46;91.77;101643.63;5024185;28;20219;-49
2022/08/22 06:17:34;;;;;;;4.38;1.90;;;;;;;18.68;90.27;101649.53;5029058;28;20261;-44
2022/08/22 06:20:01;;;;;;;4.97;1.85;;;;;;;19.02;89.54;101643.94;5027170;28;20190;-45
2022/08/22 06:22:30;;;;;;;6.25;2.03;;;;;;;19.42;87.84;101646.94;5024871;28;20188;-51
2022/08/22 06:25:06;;;;;;;5.53;2.13;;;;;;;19.85;86.39;101633.34;5024482;28;20208;-44
2022/08/22 06:27:33;;;;;;;6.80;2.15;;;;;;;20.14;83.50;101647.78;5028227;28;20188;-46
2022/08/22 06:30:01;;;;;;;5.82;1.95;;;;;;;20.43;80.98;101648.56;5029211;28;20203;-50
2022/08/22 06:32:40;;;;;;;4.32;1.98;;;;;;;20.46;79.58;101647.50;5017541;28;20632;-44
2022/08/22 06:35:14;;;;;;;5.50;1.70;;;;;;;20.34;79.15;101643.75;5019278;28;20774;-44
2022/08/22 06:37:44;;;;;;;6.97;1.80;;;;;;;20.81;77.59;101641.53;5030702;28;20176;-45
2022/08/22 06:40:13;;;;;;;3.50;1.38;;;;;;;20.94;76.21;101642.44;5031311;28;20172;-46
2022/08/22 06:42:42;;;;;;;4.85;1.40;;;;;;;21.28;74.13;101640.97;5028967;28;20455;-45
2022/08/22 06:45:26;;;;;;;5.63;1.90;;;;;;;21.53;72.98;101636.53;5023645;28;20270;-48
2022/08/22 06:47:58;;;;;;;4.32;1.50;;;;;;;21.43;73.13;101643.59;5022722;28;20660;-50
2022/08/22 06:50:29;;;;;;;7.30;1.70;;;;;;;21.67;71.32;101641.88;5023933;28;20207;-44
2022/08/22 06:53:13;;;;;;;4.10;1.70;;;;;;;21.77;70.57;101642.94;5020758;28;20209;-46
2022/08/22 06:55:50;;;;;;;4.00;1.40;;;;;;;21.87;69.26;101634.97;5024832;28;20282;-45
2022/08/22 06:58:28;;;;;;;4.00;1.38;;;;;;;21.51;69.05;101638.50;4994532;28;20202;-43
2022/08/22 07:00:58;;;;;;;4.82;1.60;;;;;;;20.66;74.31;101651.63;5025946;28;20190;-45
2022/08/22 07:03:35;;;;;;;5.68;1.70;;;;;;;20.10;75.84;101651.69;5026362;28;20185;-45
2022/08/22 07:06:02;;;;;;;3.35;1.50;;;;;;;20.38;74.68;101645.31;5024202;28;20184;-50
2022/08/22 07:08:33;;;;;;;8.32;1.60;;;;;;;20.86;72.43;101651.16;5025065;28;20196;-46
2022/08/22 07:11:26;;;;;;;5.32;1.75;;;;;;;21.49;69.35;101651.34;5021406;28;20207;-47
2022/08/22 07:14:10;;;;;;;4.97;1.67;;;;;;;21.23;70.56;101655.91;5030646;28;20320;-46
2022/08/22 07:16:59;;;;;;;5.05;1.25;;;;;;;21.49;68.37;101656.81;5022657;28;20176;-47
2022/08/22 07:19:27;;;;;;;5.00;1.55;;;;;;;21.91;65.64;101646.50;5018434;28;20263;-48
2022/08/22 07:21:53;;;;;;;6.57;1.42;;;;;;;22.05;64.01;101661.88;5027264;28;20256;-47
2022/08/22 07:24:24;;;;;;;4.50;1.48;;;;;;;22.42;62.33;101658.19;5019102;28;20680;-50
2022/08/22 07:27:11;;;;;;;4.68;1.58;;;;;;;22.11;63.03;101658.72;5021692;28;20185;-50
2022/08/22 07:29:55;;;;;;;6.40;1.67;;;;;;;22.42;60.56;101660.06;5021226;28;20284;-48
2022/08/22 07:32:54;;;;;;;4.53;1.45;;;;;;;21.68;63.01;101665.44;5025124;28;20241;-49
2022/08/22 07:35:21;;;;;;;4.93;1.50;;;;;;;22.20;62.38;101663.47;5030364;28;20289;-51
2022/08/22 07:37:50;;;;;;;4.45;1.60;;;;;;;21.94;62.89;101657.22;5022481;28;20227;-46
2022/08/22 07:40:28;;;;;;;3.92;1.42;;;;;;;21.69;63.68;101671.75;5013665;28;20663;-48
2022/08/22 07:43:29;;;;;;;3.85;1.38;;;;;;;21.74;64.47;101665.00;5025122;28;20219;-50
2022/08/22 07:46:00;;;;;;;4.38;1.70;;;;;;;22.39;62.86;101666.63;5019702;28;20198;-48
2022/08/22 07:48:33;;;;;;;7.45;1.60;;;;;;;22.72;63.63;101673.25;5020562;28;20191;-50
2022/08/22 07:51:05;;;;;;;5.50;1.80;;;;;;;22.47;62.48;101668.75;5020193;28;20207;-50
2022/08/22 07:53:55;;;;;;;6.47;1.67;;;;;;;21.96;65.59;101660.72;5029476;28;20212;-46
2022/08/22 07:56:45;;;;;;;4.47;1.40;;;;;;;22.18;64.46;101662.72;5027066;28;20194;-46
2022/08/22 07:59:16;;;;;;;5.07;1.77;;;;;;;22.02;64.46;101669.31;5028474;28;20603;-52
2022/08/22 08:01:49;;;;;;;5.85;1.50;;;;;;;21.85;65.31;101666.94;5027901;28;20235;-48
2022/08/22 08:04:19;;;;;;;7.30;1.70;;;;;;;22.62;62.76;101677.66;5012930;28;20204;-52
2022/08/22 08:06:51;;;;;;;2.03;1.27;;;;;;;22.81;62.94;101667.06;5015584;28;20270;-49
2022/08/22 08:09:18;;;;;;;6.47;1.75;;;;;;;22.71;62.05;101671.50;5015711;28;20199;-48
2022/08/22 08:11:48;;;;;;;6.20;1.88;;;;;;;22.06;64.40;101667.22;5015940;28;20211;-49
2022/08/22 08:14:15;;;;;;;5.60;1.35;;;;;;;21.92;65.04;101670.97;5021743;28;20639;-50
2022/08/22 08:17:02;;;;;;;6.30;1.73;;;;;;;21.86;65.42;101665.09;5022722;28;20196;-48
2022/08/22 08:19:34;;;;;;;7.72;1.83;;;;;;;21.56;65.75;101666.31;5024156;28;20584;-50
2022/08/22 08:22:01;;;;;;;6.32;1.45;;;;;;;21.78;67.11;101669.25;5027080;28;20183;-51
2022/08/22 08:24:38;;;;;;;3.33;1.40;;;;;;;22.15;66.25;101669.28;5025724;28;20242;-46
2022/08/22 08:30:25;;;;;;;4.32;1.50;;;;;;;21.66;64.88;101667.38;5019299;28;20207;-47
2022/08/22 08:32:56;;;;;;;5.32;1.55;;;;;;;22.27;64.55;101664.78;5006710;28;20219;-47
2022/08/22 08:35:26;;;;;;;7.07;1.77;;;;;;;22.33;64.81;101658.88;5019165;28;20276;-47
2022/08/22 08:38:06;;;;;;;4.97;1.75;;;;;;;21.93;64.60;101658.19;5018205;28;20211;-51
2022/08/22 08:40:31;;;;;;;4.13;1.75;;;;;;;21.93;65.71;101663.63;5019463;28;20560;-51
2022/08/22 08:43:33;;;;;;;3.38;1.48;;;;;;;21.60;67.87;101662.38;5019342;28;20300;-46
2022/08/22 08:46:29;;;;;;;5.15;1.67;;;;;;;21.50;67.29;101666.75;5020868;28;20187;-48
2022/08/22 08:49:00;;;;;;;6.95;1.90;;;;;;;21.27;68.06;101663.75;5028352;28;20192;-49
2022/08/22 08:51:49;;;;;;;4.38;1.60;;;;;;;22.26;66.85;101654.88;5020779;28;20189;-47
2022/08/22 08:54:53;;;;;;;6.40;1.70;;;;;;;22.55;64.05;101651.81;5013313;28;20216;-48
2022/08/22 08:57:55;;;;;;;6.40;1.55;;;;;;;22.73;61.88;101646.81;5017165;28;20325;-51
2022/08/22 09:00:41;;;;;;;3.22;1.40;;;;;;;23.65;61.35;101656.84;5016777;28;20202;-49
2022/08/22 09:03:16;;;;;;;2.95;1.50;;;;;;;23.96;58.75;101650.81;5020863;28;20184;-50
2022/08/22 09:05:44;;;;;;;5.63;1.58;;;;;;;24.13;58.54;101633.84;5019066;28;20291;-49
2022/08/22 09:08:28;;;;;;;6.15;1.70;;;;;;;25.01;57.02;101642.91;5023632;28;20249;-48
2022/08/22 09:11:19;;;;;;;5.22;1.83;;;;;;;25.01;57.11;101641.03;5025840;28;20677;-49
2022/08/22 09:14:15;;;;;;;5.40;1.70;;;;;;;24.73;55.80;101641.66;5028153;28;20728;-46
2022/08/22 09:17:06;;;;;;;5.63;1.85;;;;;;;24.51;56.26;101635.31;5016490;28;20570;-52
2022/08/22 09:19:34;;;;;;;4.22;1.38;;;;;;;24.39;56.60;101639.91;5012510;28;20200;-50
2022/08/22 09:22:11;;;;;;;3.38;1.40;;;;;;;24.62;55.67;101631.63;5015499;28;20592;-49
2022/08/22 09:25:07;;;;;;;4.47;1.50;;;;;;;24.56;56.72;101630.28;5023076;28;20297;-47
2022/08/22 09:27:58;;;;;;;5.90;1.95;;;;;;;23.18;58.19;101639.66;5024891;28;20553;-46
2022/08/22 09:30:41;;;;;;;2.80;1.30;;;;;;;23.08;60.64;101656.91;5022593;28;20211;-50
2022/08/22 09:33:18;;;;;;;7.82;1.90;;;;;;;23.06;60.41;101642.47;5016116;28;20184;-46
2022/08/22 09:36:02;;;;;;;4.93;1.52;;;;;;;21.99;62.29;101638.63;5014497;28;20192;-48
2022/08/22 09:38:48;;;;;;;5.18;1.90;;;;;;;22.34;60.95;101640.63;5026351;28;20187;-49
2022/08/22 09:41:40;;;;;;;5.60;2.00;;;;;;;22.35;62.37;101640.53;5018942;28;20596;-49
2022/08/22 09:44:37;;;;;;;4.35;1.85;;;;;;;22.65;63.00;101649.25;5022575;28;20303;-48
2022/08/22 09:47:13;;;;;;;7.60;1.85;;;;;;;21.41;68.70;101646.47;5015740;28;20203;-48
2022/08/22 09:49:38;;;;;;;9.82;1.80;;;;;;;20.88;72.79;101646.50;5015604;28;20747;-50
2022/08/22 09:52:49;;;;;;;4.60;1.67;;;;;;;21.71;71.30;101643.41;5019504;28;20281;-49
2022/08/22 09:55:44;;;;;;;2.92;1.60;;;;;;;22.04;68.60;101639.19;5002047;28;20231;-46
2022/08/22 09:58:34;;;;;;;5.78;1.85;;;;;;;21.67;67.54;101636.41;5023937;28;20191;-49
2022/08/22 10:01:18;;;;;;;4.70;1.67;;;;;;;21.43;67.97;101647.22;5025593;28;20222;-50
2022/08/22 10:03:43;;;;;;;7.18;1.83;;;;;;;21.63;68.68;101648.53;5011097;28;20208;-47
2022/08/22 10:06:20;;;;;;;4.13;1.73;;;;;;;21.30;69.72;101647.19;5010518;28;20186;-50
2022/08/22 10:09:00;;;;;;;7.20;1.60;;;;;;;20.75;72.21;101643.72;5012104;28;20196;-53
2022/08/22 10:11:40;;;;;;;6.40;2.08;;;;;;;20.38;73.77;101650.75;5016601;28;20172;-48
2022/08/22 10:14:19;;;;;;;6.47;1.70;;;;;;;20.44;73.91;101654.88;5016567;28;20250;-52
2022/08/22 10:17:23;;;;;;;8.82;1.73;;;;;;;20.27;75.12;101642.38;5018721;28;20195;-45
2022/08/22 10:19:56;;;;;;;6.45;1.70;;;;;;;20.38;75.02;101650.75;5017817;28;20211;-48
2022/08/22 10:22:33;;;;;;;7.93;2.10;;;;;;;20.77;73.67;101636.31;5023235;28;20447;-47
2022/08/22 10:25:19;;;;;;;3.67;1.50;;;;;;;20.77;73.21;101638.16;5013299;28;20605;-48
2022/08/22 10:28:11;;;;;;;8.75;1.90;;;;;;;20.67;74.19;101639.78;5024748;28;20184;-47
2022/08/22 10:31:05;;;;;;;7.93;1.67;;;;;;;20.87;72.98;101633.81;5009422;28;20219;-47
2022/08/22 10:33:38;;;;;;;13.68;2.33;;;;;;;20.72;71.01;101638.47;4982121;28;20228;-48
2022/08/22 10:36:06;;;;;;;6.65;1.60;;;;;;;20.74;70.99;101631.06;5013001;28;20184;-46
2022/08/22 10:38:35;;;;;;;6.72;1.85;;;;;;;20.82;71.81;101632.41;5019241;28;20620;-50
2022/08/22 10:41:09;;;;;;;6.13;1.80;;;;;;;21.18;70.25;101631.69;5023872;28;20185;-48
2022/08/22 10:44:02;;;;;;;3.97;1.65;;;;;;;21.16;71.65;101630.91;5021814;28;20635;-51
2022/08/22 10:46:53;;;;;;;8.82;1.75;;;;;;;20.99;72.38;101632.13;5019861;28;20188;-48
2022/08/22 10:49:33;;;;;;;6.15;1.80;;;;;;;20.92;71.77;101631.66;5017168;28;20199;-47
2022/08/22 10:52:07;;;;;;;3.97;1.50;;;;;;;20.72;71.62;101629.44;5027906;28;20559;-46
2022/08/22 10:54:48;;;;;;;4.30;1.90;;;;;;;20.57;71.12;101628.63;5026244;28;20215;-44
2022/08/22 10:57:25;;;;;;;5.90;1.77;;;;;;;20.47;70.96;101622.91;5021452;28;20183;-46
2022/08/22 11:00:05;;;;;;;5.65;1.70;;;;;;;20.48;70.95;101632.81;5015697;28;20212;-46
2022/08/22 11:02:52;;;;;;;8.88;1.83;;;;;;;20.72;71.69;101633.03;5021049;28;20263;-45
2022/08/22 11:05:38;;;;;;;3.60;1.60;;;;;;;20.61;71.32;101635.59;5020705;28;20270;-46
2022/08/22 11:08:39;;;;;;;7.32;1.77;;;;;;;20.69;71.51;101632.38;5023196;28;20227;-44
2022/08/22 11:11:19;;;;;;;2.28;1.40;;;;;;;20.48;71.31;101640.97;5019732;28;20623;-45
2022/08/22 11:14:06;;;;;;;7.32;1.70;;;;;;;20.29;70.94;101643.16;5024712;28;20211;-46
2022/08/22 11:17:01;;;;;;;6.32;1.77;;;;;;;20.62;70.69;101637.38;5020413;28;20199;-45
2022/08/22 11:19:51;;;;;;;5.53;1.40;;;;;;;21.22;71.53;101632.34;5020337;28;20195;-46
2022/08/22 11:23:01;;;;;;;5.78;1.95;;;;;;;22.26;67.29;101619.38;5017995;28;20203;-45
2022/08/22 11:25:27;;;;;;;6.13;1.58;;;;;;;22.45;65.86;101623.44;4995905;28;20770;-46
2022/08/22 11:28:05;;;;;;;4.60;1.95;;;;;;;22.86;64.97;101625.72;5020362;28;20189;-46
2022/08/22 11:30:46;;;;;;;6.00;1.45;;;;;;;22.84;64.76;101617.66;5022501;28;20200;-44
2022/08/22 11:33:11;;;;;;;5.28;1.63;;;;;;;22.42;64.81;101619.97;5018758;28;20528;-46
2022/08/22 11:36:01;;;;;;;5.95;1.90;;;;;;;22.89;65.85;101625.47;5025802;28;20314;-46
2022/08/22 11:38:32;;;;;;;8.88;1.90;;;;;;;22.97;64.05;101622.16;5018458;28;20705;-44
2022/08/22 11:41:18;;;;;;;5.45;1.83;;;;;;;23.30;63.59;101623.28;5021323;28;20203;-47
2022/08/22 11:43:58;;;;;;;6.93;2.22;;;;;;;23.21;63.64;101619.41;5027463;28;20214;-47
2022/08/22 11:46:30;;;;;;;4.30;1.70;;;;;;;23.30;62.67;101624.13;5023132;28;20681;-46
2022/08/22 11:49:08;;;;;;;6.20;1.70;;;;;;;23.13;62.90;101630.94;5022758;28;20562;-47
2022/08/22 11:51:39;;;;;;;6.03;1.80;;;;;;;22.33;64.32;101625.25;5020793;28;20641;-44
2022/08/22 11:54:07;;;;;;;3.92;1.60;;;;;;;22.13;66.32;101632.19;5018212;28;20298;-48
2022/08/22 11:56:48;;;;;;;6.80;2.10;;;;;;;21.66;66.40;101628.34;5021655;28;20195;-48
2022/08/22 11:59:40;;;;;;;6.95;2.00;;;;;;;21.46;67.52;101641.53;5025815;28;20582;-48
2022/08/22 12:02:36;;;;;;;6.88;1.90;;;;;;;21.27;68.48;101635.63;5021103;28;20278;-44
2022/08/22 12:05:11;;;;;;;7.30;1.88;;;;;;;21.19;68.54;101636.19;5022642;28;20234;-44
2022/08/22 12:07:44;;;;;;;5.63;1.60;;;;;;;21.26;69.80;101644.78;5027967;28;20197;-45
2022/08/22 12:10:24;;;;;;;13.05;2.35;;;;;;;21.35;69.17;101639.56;5013675;28;20863;-45
2022/08/22 12:13:18;;;;;;;6.35;1.95;;;;;;;21.27;67.77;101643.78;5017309;28;20179;-46
2022/08/22 12:16:13;;;;;;;6.68;2.20;;;;;;;21.03;69.09;101644.53;5017398;28;20234;-44
2022/08/22 12:19:00;;;;;;;5.75;1.75;;;;;;;21.33;69.46;101633.34;5020334;28;20188;-44
2022/08/22 12:21:42;;;;;;;10.15;2.50;;;;;;;21.20;68.63;101637.91;5018097;28;20184;-45
2022/08/22 12:25:02;;;;;;;6.60;1.90;;;;;;;21.58;67.25;101635.22;5018380;28;20282;-46
2022/08/22 12:27:52;;;;;;;6.78;1.60;;;;;;;21.67;66.49;101627.34;4963346;28;20221;-47
2022/08/22 12:30:32;;;;;;;5.32;1.80;;;;;;;21.67;67.15;101625.50;5024623;28;20662;-44